sensor_id;sensor_type;location;lat;lon;timestamp;temperature;humidity
14008;DHT22;61651;45.508;12.232;2022-08-01T00:00:11;28.10;99.90
14008;DHT22;61651;45.508;12.232;2022-08-01T00:03:13;28.10;99.90
14008;DHT22;61651;45.508;12.232;2022-08-01T00:06:15;28.00;99.90
14008;DHT22;61651;45.508;12.232;2022-08-01T00:09:18;27.90;99.90
14008;DHT22;61651;45.508;12.232;2022-08-01T00:12:20;27.90;99.90
14008;DHT22;61651;45.508;12.232;2022-08-01T00:15:22;27.80;99.90
14008;DHT22;61651;45.508;12.232;2022-08-01T00:18:24;27.80;99.90
14008;DHT22;61651;45.508;12.232;2022-08-01T00:21:26;27.80;99.90
14008;DHT22;61651;45.508;12.232;2022-08-01T00:24:29;27.80;99.90
14008;DHT22;61651;45.508;12.232;2022-08-01T00:27:32;27.80;99.90
14008;DHT22;61651;45.508;12.232;2022-08-01T00:30:34;27.70;99.90
14008;DHT22;61651;45.508;12.232;2022-08-01T00:33:36;27.70;99.90
14008;DHT22;61651;45.508;12.232;2022-08-01T00:36:38;27.60;99.90
14008;DHT22;61651;45.508;12.232;2022-08-01T00:39:41;27.60;99.90
14008;DHT22;61651;45.508;12.232;2022-08-01T00:42:43;27.50;99.90
14008;DHT22;61651;45.508;12.232;2022-08-01T00:45:45;27.50;99.90
14008;DHT22;61651;45.508;12.232;2022-08-01T00:48:47;27.50;99.90
14008;DHT22;61651;45.508;12.232;2022-08-01T00:51:49;27.50;99.90
14008;DHT22;61651;45.508;12.232;2022-08-01T00:54:53;27.50;99.90
14008;DHT22;61651;45.508;12.232;2022-08-01T00:57:55;27.50;99.90
14008;DHT22;61651;45.508;12.232;2022-08-01T01:00:58;27.50;99.90
14008;DHT22;61651;45.508;12.232;2022-08-01T01:04:00;27.40;99.90
14008;DHT22;61651;45.508;12.232;2022-08-01T01:07:06;27.40;99.90
14008;DHT22;61651;45.508;12.232;2022-08-01T01:10:16;27.40;99.90
14008;DHT22;61651;45.508;12.232;2022-08-01T01:13:28;27.40;99.90
14008;DHT22;61651;45.508;12.232;2022-08-01T01:16:36;27.30;99.90
14008;DHT22;61651;45.508;12.232;2022-08-01T01:19:45;27.30;99.90
14008;DHT22;61651;45.508;12.232;2022-08-01T01:23:34;27.20;99.90
14008;DHT22;61651;45.508;12.232;2022-08-01T01:26:49;27.20;99.90
14008;DHT22;61651;45.508;12.232;2022-08-01T01:30:01;27.20;99.90
14008;DHT22;61651;45.508;12.232;2022-08-01T01:33:06;27.20;99.90
14008;DHT22;61651;45.508;12.232;2022-08-01T01:36:11;27.20;99.90
14008;DHT22;61651;45.508;12.232;2022-08-01T01:39:15;27.20;99.90
14008;DHT22;61651;45.508;12.232;2022-08-01T01:42:18;27.10;99.90
14008;DHT22;61651;45.508;12.232;2022-08-01T01:45:24;27.10;99.90
14008;DHT22;61651;45.508;12.232;2022-08-01T01:48:26;27.10;99.90
14008;DHT22;61651;45.508;12.232;2022-08-01T01:51:30;27.10;99.90
14008;DHT22;61651;45.508;12.232;2022-08-01T01:54:36;27.10;99.90
14008;DHT22;61651;45.508;12.232;2022-08-01T01:57:41;27.00;99.90
14008;DHT22;61651;45.508;12.232;2022-08-01T02:00:45;26.90;99.90
14008;DHT22;61651;45.508;12.232;2022-08-01T02:03:48;26.90;99.90
14008;DHT22;61651;45.508;12.232;2022-08-01T02:06:52;26.90;99.90
14008;DHT22;61651;45.508;12.232;2022-08-01T02:09:54;26.90;99.90
14008;DHT22;61651;45.508;12.232;2022-08-01T02:12:58;26.80;99.90
14008;DHT22;61651;45.508;12.232;2022-08-01T02:16:03;26.80;99.90
14008;DHT22;61651;45.508;12.232;2022-08-01T02:19:06;26.80;99.90
14008;DHT22;61651;45.508;12.232;2022-08-01T02:22:10;26.80;99.90
14008;DHT22;61651;45.508;12.232;2022-08-01T02:25:17;26.80;99.90
14008;DHT22;61651;45.508;12.232;2022-08-01T02:28:25;26.80;99.90
14008;DHT22;61651;45.508;12.232;2022-08-01T02:31:33;26.80;99.90
14008;DHT22;61651;45.508;12.232;2022-08-01T02:34:36;26.80;99.90
14008;DHT22;61651;45.508;12.232;2022-08-01T02:37:39;26.80;99.90
14008;DHT22;61651;45.508;12.232;2022-08-01T02:40:46;26.70;99.90
14008;DHT22;61651;45.508;12.232;2022-08-01T02:43:51;26.70;99.90
14008;DHT22;61651;45.508;12.232;2022-08-01T02:46:58;26.70;99.90
14008;DHT22;61651;45.508;12.232;2022-08-01T02:50:03;26.70;99.90
14008;DHT22;61651;45.508;12.232;2022-08-01T02:53:06;26.60;99.90
14008;DHT22;61651;45.508;12.232;2022-08-01T02:56:12;26.50;99.90
14008;DHT22;61651;45.508;12.232;2022-08-01T02:59:18;26.50;99.90
14008;DHT22;61651;45.508;12.232;2022-08-01T03:02:22;26.50;99.90
14008;DHT22;61651;45.508;12.232;2022-08-01T03:05:26;26.40;99.90
14008;DHT22;61651;45.508;12.232;2022-08-01T03:08:30;26.40;99.90
14008;DHT22;61651;45.508;12.232;2022-08-01T03:11:32;26.40;99.90
14008;DHT22;61651;45.508;12.232;2022-08-01T03:14:38;26.40;99.90
14008;DHT22;61651;45.508;12.232;2022-08-01T03:17:44;26.40;99.90
14008;DHT22;61651;45.508;12.232;2022-08-01T03:20:47;26.40;99.90
14008;DHT22;61651;45.508;12.232;2022-08-01T03:23:50;26.30;99.90
14008;DHT22;61651;45.508;12.232;2022-08-01T03:26:57;26.30;99.90
14008;DHT22;61651;45.508;12.232;2022-08-01T03:30:03;26.20;99.90
14008;DHT22;61651;45.508;12.232;2022-08-01T03:33:07;26.20;99.90
14008;DHT22;61651;45.508;12.232;2022-08-01T03:36:11;26.20;99.90
14008;DHT22;61651;45.508;12.232;2022-08-01T03:39:16;26.20;99.90
14008;DHT22;61651;45.508;12.232;2022-08-01T03:42:23;26.20;99.90
14008;DHT22;61651;45.508;12.232;2022-08-01T03:45:30;26.10;99.90
14008;DHT22;61651;45.508;12.232;2022-08-01T03:48:36;26.10;99.90
14008;DHT22;61651;45.508;12.232;2022-08-01T03:51:40;26.10;99.90
14008;DHT22;61651;45.508;12.232;2022-08-01T03:54:46;26.10;99.90
14008;DHT22;61651;45.508;12.232;2022-08-01T03:57:50;26.10;99.90
14008;DHT22;61651;45.508;12.232;2022-08-01T04:00:53;26.10;99.90
14008;DHT22;61651;45.508;12.232;2022-08-01T04:03:58;26.10;99.90
14008;DHT22;61651;45.508;12.232;2022-08-01T04:07:01;26.00;99.90
14008;DHT22;61651;45.508;12.232;2022-08-01T04:10:07;26.00;99.90
14008;DHT22;61651;45.508;12.232;2022-08-01T04:13:09;26.00;99.90
14008;DHT22;61651;45.508;12.232;2022-08-01T04:16:11;26.00;99.90
14008;DHT22;61651;45.508;12.232;2022-08-01T04:19:14;26.00;99.90
14008;DHT22;61651;45.508;12.232;2022-08-01T04:22:16;26.00;99.90
14008;DHT22;61651;45.508;12.232;2022-08-01T04:25:23;26.00;99.90
14008;DHT22;61651;45.508;12.232;2022-08-01T04:28:29;26.00;99.90
14008;DHT22;61651;45.508;12.232;2022-08-01T04:31:32;26.00;99.90
14008;DHT22;61651;45.508;12.232;2022-08-01T04:34:38;26.00;99.90
14008;DHT22;61651;45.508;12.232;2022-08-01T04:37:43;26.10;99.90
14008;DHT22;61651;45.508;12.232;2022-08-01T04:40:46;26.10;99.90
14008;DHT22;61651;45.508;12.232;2022-08-01T04:43:48;26.10;99.90
14008;DHT22;61651;45.508;12.232;2022-08-01T04:46:52;26.10;99.90
14008;DHT22;61651;45.508;12.232;2022-08-01T04:49:56;26.20;99.90
14008;DHT22;61651;45.508;12.232;2022-08-01T04:52:58;26.20;99.90
14008;DHT22;61651;45.508;12.232;2022-08-01T04:56:03;26.10;99.90
14008;DHT22;61651;45.508;12.232;2022-08-01T04:59:06;26.20;99.90
14008;DHT22;61651;45.508;12.232;2022-08-01T05:02:26;26.30;99.90
14008;DHT22;61651;45.508;12.232;2022-08-01T05:05:31;26.30;99.90
14008;DHT22;61651;45.508;12.232;2022-08-01T05:08:33;26.30;99.90
14008;DHT22;61651;45.508;12.232;2022-08-01T05:11:36;26.30;99.90
14008;DHT22;61651;45.508;12.232;2022-08-01T05:14:39;26.30;99.90
14008;DHT22;61651;45.508;12.232;2022-08-01T05:17:41;26.30;99.90
14008;DHT22;61651;45.508;12.232;2022-08-01T05:20:44;26.30;99.90
14008;DHT22;61651;45.508;12.232;2022-08-01T05:23:47;26.40;99.90
14008;DHT22;61651;45.508;12.232;2022-08-01T05:26:49;26.40;99.90
14008;DHT22;61651;45.508;12.232;2022-08-01T05:29:51;26.50;99.90
14008;DHT22;61651;45.508;12.232;2022-08-01T05:32:54;26.50;99.90
14008;DHT22;61651;45.508;12.232;2022-08-01T05:36:11;26.60;99.90
14008;DHT22;61651;45.508;12.232;2022-08-01T05:39:13;26.60;99.90
14008;DHT22;61651;45.508;12.232;2022-08-01T05:42:15;26.70;99.90
14008;DHT22;61651;45.508;12.232;2022-08-01T05:45:17;26.80;99.90
14008;DHT22;61651;45.508;12.232;2022-08-01T05:48:19;26.80;99.90
14008;DHT22;61651;45.508;12.232;2022-08-01T05:51:23;26.80;99.90
14008;DHT22;61651;45.508;12.232;2022-08-01T05:54:25;26.90;99.90
14008;DHT22;61651;45.508;12.232;2022-08-01T05:57:27;27.00;99.90
14008;DHT22;61651;45.508;12.232;2022-08-01T06:00:29;27.00;99.90
14008;DHT22;61651;45.508;12.232;2022-08-01T06:03:31;27.10;99.90
14008;DHT22;61651;45.508;12.232;2022-08-01T06:06:35;27.20;99.90
14008;DHT22;61651;45.508;12.232;2022-08-01T06:09:37;27.20;99.90
14008;DHT22;61651;45.508;12.232;2022-08-01T06:12:39;27.30;99.90
14008;DHT22;61651;45.508;12.232;2022-08-01T06:15:41;27.30;99.90
14008;DHT22;61651;45.508;12.232;2022-08-01T06:18:43;27.40;99.90
14008;DHT22;61651;45.508;12.232;2022-08-01T06:21:46;27.40;99.90
14008;DHT22;61651;45.508;12.232;2022-08-01T06:24:48;27.50;99.90
14008;DHT22;61651;45.508;12.232;2022-08-01T06:27:50;27.60;99.90
14008;DHT22;61651;45.508;12.232;2022-08-01T06:30:52;27.60;99.90
14008;DHT22;61651;45.508;12.232;2022-08-01T06:33:55;27.70;99.90
14008;DHT22;61651;45.508;12.232;2022-08-01T06:36:59;27.70;99.90
14008;DHT22;61651;45.508;12.232;2022-08-01T06:40:01;27.70;99.90
14008;DHT22;61651;45.508;12.232;2022-08-01T06:43:03;27.70;99.90
14008;DHT22;61651;45.508;12.232;2022-08-01T06:46:06;27.80;99.90
14008;DHT22;61651;45.508;12.232;2022-08-01T06:49:08;27.90;99.90
14008;DHT22;61651;45.508;12.232;2022-08-01T06:52:11;28.00;99.90
14008;DHT22;61651;45.508;12.232;2022-08-01T06:55:13;28.10;99.90
14008;DHT22;61651;45.508;12.232;2022-08-01T06:58:15;28.20;99.90
14008;DHT22;61651;45.508;12.232;2022-08-01T07:01:18;28.20;99.90
14008;DHT22;61651;45.508;12.232;2022-08-01T07:04:20;28.20;99.90
14008;DHT22;61651;45.508;12.232;2022-08-01T07:07:23;28.30;99.90
14008;DHT22;61651;45.508;12.232;2022-08-01T07:10:25;28.40;99.90
14008;DHT22;61651;45.508;12.232;2022-08-01T07:13:33;28.50;99.90
14008;DHT22;61651;45.508;12.232;2022-08-01T07:16:35;28.60;99.90
14008;DHT22;61651;45.508;12.232;2022-08-01T07:19:37;28.60;99.90
14008;DHT22;61651;45.508;12.232;2022-08-01T07:22:40;28.70;99.90
14008;DHT22;61651;45.508;12.232;2022-08-01T07:25:42;28.70;99.90
14008;DHT22;61651;45.508;12.232;2022-08-01T07:28:44;28.80;99.90
14008;DHT22;61651;45.508;12.232;2022-08-01T07:31:46;29.00;99.90
14008;DHT22;61651;45.508;12.232;2022-08-01T07:34:48;29.10;99.90
14008;DHT22;61651;45.508;12.232;2022-08-01T07:37:51;29.20;99.90
14008;DHT22;61651;45.508;12.232;2022-08-01T07:40:54;29.30;99.90
14008;DHT22;61651;45.508;12.232;2022-08-01T07:43:56;29.20;99.90
14008;DHT22;61651;45.508;12.232;2022-08-01T07:46:58;29.30;99.90
14008;DHT22;61651;45.508;12.232;2022-08-01T07:50:00;29.40;99.90
14008;DHT22;61651;45.508;12.232;2022-08-01T07:53:04;29.40;99.90
14008;DHT22;61651;45.508;12.232;2022-08-01T07:56:27;29.50;99.90
14008;DHT22;61651;45.508;12.232;2022-08-01T07:59:29;29.60;99.90
14008;DHT22;61651;45.508;12.232;2022-08-01T08:02:31;29.70;99.90
14008;DHT22;61651;45.508;12.232;2022-08-01T08:05:33;29.80;99.90
14008;DHT22;61651;45.508;12.232;2022-08-01T08:08:37;29.90;99.90
14008;DHT22;61651;45.508;12.232;2022-08-01T08:11:39;30.00;99.90
14008;DHT22;61651;45.508;12.232;2022-08-01T08:14:42;30.10;99.90
14008;DHT22;61651;45.508;12.232;2022-08-01T08:17:44;30.20;99.90
14008;DHT22;61651;45.508;12.232;2022-08-01T08:20:46;30.40;99.90
14008;DHT22;61651;45.508;12.232;2022-08-01T08:23:50;30.40;99.90
14008;DHT22;61651;45.508;12.232;2022-08-01T08:27:09;30.40;99.90
14008;DHT22;61651;45.508;12.232;2022-08-01T08:30:12;30.50;99.90
14008;DHT22;61651;45.508;12.232;2022-08-01T08:33:14;30.60;99.90
14008;DHT22;61651;45.508;12.232;2022-08-01T08:36:16;30.80;99.90
14008;DHT22;61651;45.508;12.232;2022-08-01T08:39:19;30.90;99.90
14008;DHT22;61651;45.508;12.232;2022-08-01T08:42:21;30.90;99.90
14008;DHT22;61651;45.508;12.232;2022-08-01T08:45:24;30.90;99.90
14008;DHT22;61651;45.508;12.232;2022-08-01T08:48:26;30.80;99.90
14008;DHT22;61651;45.508;12.232;2022-08-01T08:51:30;30.90;99.90
14008;DHT22;61651;45.508;12.232;2022-08-01T08:54:36;30.80;99.90
14008;DHT22;61651;45.508;12.232;2022-08-01T08:57:39;30.90;99.90
14008;DHT22;61651;45.508;12.232;2022-08-01T09:00:42;31.10;99.90
14008;DHT22;61651;45.508;12.232;2022-08-01T09:03:44;31.30;99.90
14008;DHT22;61651;45.508;12.232;2022-08-01T09:06:46;31.40;99.90
14008;DHT22;61651;45.508;12.232;2022-08-01T09:09:49;31.50;99.90
14008;DHT22;61651;45.508;12.232;2022-08-01T09:13:07;31.50;99.90
14008;DHT22;61651;45.508;12.232;2022-08-01T09:16:16;31.60;99.90
14008;DHT22;61651;45.508;12.232;2022-08-01T09:19:19;31.70;99.90
14008;DHT22;61651;45.508;12.232;2022-08-01T09:22:24;31.80;99.90
14008;DHT22;61651;45.508;12.232;2022-08-01T09:25:28;31.90;99.90
14008;DHT22;61651;45.508;12.232;2022-08-01T09:28:34;32.10;99.90
14008;DHT22;61651;45.508;12.232;2022-08-01T09:31:41;32.10;99.90
14008;DHT22;61651;45.508;12.232;2022-08-01T09:34:43;32.10;99.90
14008;DHT22;61651;45.508;12.232;2022-08-01T09:37:46;32.00;99.90
14008;DHT22;61651;45.508;12.232;2022-08-01T09:40:52;32.10;99.90
14008;DHT22;61651;45.508;12.232;2022-08-01T09:43:54;32.20;99.90
14008;DHT22;61651;45.508;12.232;2022-08-01T09:46:56;32.40;99.90
14008;DHT22;61651;45.508;12.232;2022-08-01T09:49:58;32.50;99.90
14008;DHT22;61651;45.508;12.232;2022-08-01T09:53:15;32.00;99.90
14008;DHT22;61651;45.508;12.232;2022-08-01T09:56:20;32.20;99.90
14008;DHT22;61651;45.508;12.232;2022-08-01T09:59:34;32.40;99.90
14008;DHT22;61651;45.508;12.232;2022-08-01T10:02:38;32.60;99.90
14008;DHT22;61651;45.508;12.232;2022-08-01T10:05:41;32.70;99.90
14008;DHT22;61651;45.508;12.232;2022-08-01T10:08:46;32.80;99.90
14008;DHT22;61651;45.508;12.232;2022-08-01T10:11:49;32.90;99.90
14008;DHT22;61651;45.508;12.232;2022-08-01T10:14:52;33.10;99.90
14008;DHT22;61651;45.508;12.232;2022-08-01T10:17:57;33.10;99.90
14008;DHT22;61651;45.508;12.232;2022-08-01T10:21:00;33.20;99.90
14008;DHT22;61651;45.508;12.232;2022-08-01T10:24:04;33.30;99.90
14008;DHT22;61651;45.508;12.232;2022-08-01T10:27:09;33.50;99.90
14008;DHT22;61651;45.508;12.232;2022-08-01T10:30:12;33.50;99.90
14008;DHT22;61651;45.508;12.232;2022-08-01T10:33:15;33.50;99.90
14008;DHT22;61651;45.508;12.232;2022-08-01T10:36:19;33.60;99.90
14008;DHT22;61651;45.508;12.232;2022-08-01T10:39:22;33.60;99.90
14008;DHT22;61651;45.508;12.232;2022-08-01T10:42:25;33.80;99.90
14008;DHT22;61651;45.508;12.232;2022-08-01T10:45:29;33.80;99.90
14008;DHT22;61651;45.508;12.232;2022-08-01T10:48:40;33.90;99.90
14008;DHT22;61651;45.508;12.232;2022-08-01T10:51:44;33.90;99.90
14008;DHT22;61651;45.508;12.232;2022-08-01T10:54:46;34.00;99.90
14008;DHT22;61651;45.508;12.232;2022-08-01T10:57:50;34.10;99.90
14008;DHT22;61651;45.508;12.232;2022-08-01T11:01:23;34.10;99.90
14008;DHT22;61651;45.508;12.232;2022-08-01T11:04:34;34.20;99.90
14008;DHT22;61651;45.508;12.232;2022-08-01T11:07:47;33.90;99.90
14008;DHT22;61651;45.508;12.232;2022-08-01T11:10:59;33.80;99.90
14008;DHT22;61651;45.508;12.232;2022-08-01T11:14:04;34.00;99.90
14008;DHT22;61651;45.508;12.232;2022-08-01T11:17:32;34.10;99.90
14008;DHT22;61651;45.508;12.232;2022-08-01T11:20:35;34.00;99.90
14008;DHT22;61651;45.508;12.232;2022-08-01T11:23:47;33.60;99.90
14008;DHT22;61651;45.508;12.232;2022-08-01T11:27:17;33.70;99.90
14008;DHT22;61651;45.508;12.232;2022-08-01T11:30:24;33.90;99.90
14008;DHT22;61651;45.508;12.232;2022-08-01T11:33:48;34.20;99.90
14008;DHT22;61651;45.508;12.232;2022-08-01T11:37:22;34.30;99.90
14008;DHT22;61651;45.508;12.232;2022-08-01T11:40:26;34.40;99.90
14008;DHT22;61651;45.508;12.232;2022-08-01T11:43:28;34.20;99.90
14008;DHT22;61651;45.508;12.232;2022-08-01T11:46:55;34.40;99.90
14008;DHT22;61651;45.508;12.232;2022-08-01T11:49:57;34.70;99.90
14008;DHT22;61651;45.508;12.232;2022-08-01T11:53:01;34.30;99.90
14008;DHT22;61651;45.508;12.232;2022-08-01T11:56:03;34.60;99.90
14008;DHT22;61651;45.508;12.232;2022-08-01T11:59:06;34.70;99.90
14008;DHT22;61651;45.508;12.232;2022-08-01T12:02:17;34.90;99.90
14008;DHT22;61651;45.508;12.232;2022-08-01T12:05:20;35.10;99.90
14008;DHT22;61651;45.508;12.232;2022-08-01T12:08:25;35.20;99.90
14008;DHT22;61651;45.508;12.232;2022-08-01T12:11:27;35.40;99.90
14008;DHT22;61651;45.508;12.232;2022-08-01T12:14:34;35.60;99.90
14008;DHT22;61651;45.508;12.232;2022-08-01T12:17:39;35.60;99.90
14008;DHT22;61651;45.508;12.232;2022-08-01T12:20:43;35.70;99.90
14008;DHT22;61651;45.508;12.232;2022-08-01T12:23:45;35.80;99.90
14008;DHT22;61651;45.508;12.232;2022-08-01T12:26:47;35.80;99.90
14008;DHT22;61651;45.508;12.232;2022-08-01T12:29:49;35.90;99.90
14008;DHT22;61651;45.508;12.232;2022-08-01T12:32:54;35.90;99.90
14008;DHT22;61651;45.508;12.232;2022-08-01T12:35:56;36.20;99.90
14008;DHT22;61651;45.508;12.232;2022-08-01T12:38:58;36.40;99.90
14008;DHT22;61651;45.508;12.232;2022-08-01T12:42:06;36.60;99.90
14008;DHT22;61651;45.508;12.232;2022-08-01T12:45:09;36.80;99.90
14008;DHT22;61651;45.508;12.232;2022-08-01T12:48:15;36.80;99.90
14008;DHT22;61651;45.508;12.232;2022-08-01T12:51:26;37.00;99.90
14008;DHT22;61651;45.508;12.232;2022-08-01T12:54:28;37.10;99.80
14008;DHT22;61651;45.508;12.232;2022-08-01T12:57:30;37.10;98.50
14008;DHT22;61651;45.508;12.232;2022-08-01T13:00:33;36.80;98.70
14008;DHT22;61651;45.508;12.232;2022-08-01T13:03:37;36.80;98.60
14008;DHT22;61651;45.508;12.232;2022-08-01T13:06:39;36.80;98.60
14008;DHT22;61651;45.508;12.232;2022-08-01T13:09:49;37.00;98.20
14008;DHT22;61651;45.508;12.232;2022-08-01T13:12:53;37.10;98.60
14008;DHT22;61651;45.508;12.232;2022-08-01T13:16:04;37.10;99.50
14008;DHT22;61651;45.508;12.232;2022-08-01T13:19:07;37.10;99.50
14008;DHT22;61651;45.508;12.232;2022-08-01T13:22:18;37.20;99.10
14008;DHT22;61651;45.508;12.232;2022-08-01T13:25:23;37.20;99.50
14008;DHT22;61651;45.508;12.232;2022-08-01T13:28:26;37.40;99.60
14008;DHT22;61651;45.508;12.232;2022-08-01T13:31:32;37.50;97.40
14008;DHT22;61651;45.508;12.232;2022-08-01T13:34:36;37.60;98.20
14008;DHT22;61651;45.508;12.232;2022-08-01T13:37:38;37.90;97.50
14008;DHT22;61651;45.508;12.232;2022-08-01T13:40:40;38.20;96.50
14008;DHT22;61651;45.508;12.232;2022-08-01T13:43:43;38.30;96.30
14008;DHT22;61651;45.508;12.232;2022-08-01T13:46:45;38.30;96.50
14008;DHT22;61651;45.508;12.232;2022-08-01T13:49:49;38.50;96.50
14008;DHT22;61651;45.508;12.232;2022-08-01T13:52:51;38.70;95.70
14008;DHT22;61651;45.508;12.232;2022-08-01T13:55:53;39.10;95.00
14008;DHT22;61651;45.508;12.232;2022-08-01T13:58:56;39.20;94.60
14008;DHT22;61651;45.508;12.232;2022-08-01T14:01:58;39.30;94.60
14008;DHT22;61651;45.508;12.232;2022-08-01T14:05:01;39.10;93.30
14008;DHT22;61651;45.508;12.232;2022-08-01T14:08:04;39.30;94.50
14008;DHT22;61651;45.508;12.232;2022-08-01T14:11:06;39.50;93.90
14008;DHT22;61651;45.508;12.232;2022-08-01T14:14:08;39.70;93.80
14008;DHT22;61651;45.508;12.232;2022-08-01T14:17:10;39.90;93.40
14008;DHT22;61651;45.508;12.232;2022-08-01T14:20:13;40.20;93.10
14008;DHT22;61651;45.508;12.232;2022-08-01T14:23:15;40.20;92.60
14008;DHT22;61651;45.508;12.232;2022-08-01T14:26:17;40.30;91.90
14008;DHT22;61651;45.508;12.232;2022-08-01T14:29:19;40.40;91.70
14008;DHT22;61651;45.508;12.232;2022-08-01T14:32:21;40.40;90.60
14008;DHT22;61651;45.508;12.232;2022-08-01T14:35:25;40.30;90.80
14008;DHT22;61651;45.508;12.232;2022-08-01T14:38:27;40.30;90.30
14008;DHT22;61651;45.508;12.232;2022-08-01T14:41:29;40.40;90.50
14008;DHT22;61651;45.508;12.232;2022-08-01T14:44:31;40.20;90.20
14008;DHT22;61651;45.508;12.232;2022-08-01T14:47:33;40.00;90.80
14008;DHT22;61651;45.508;12.232;2022-08-01T14:50:48;40.10;91.00
14008;DHT22;61651;45.508;12.232;2022-08-01T14:53:51;40.00;90.80
14008;DHT22;61651;45.508;12.232;2022-08-01T14:56:53;40.10;90.80
14008;DHT22;61651;45.508;12.232;2022-08-01T14:59:55;39.90;90.00
14008;DHT22;61651;45.508;12.232;2022-08-01T15:02:57;39.80;90.60
14008;DHT22;61651;45.508;12.232;2022-08-01T15:06:01;39.80;90.40
14008;DHT22;61651;45.508;12.232;2022-08-01T15:09:03;39.90;90.50
14008;DHT22;61651;45.508;12.232;2022-08-01T15:12:06;40.10;90.70
14008;DHT22;61651;45.508;12.232;2022-08-01T15:15:09;40.10;89.60
14008;DHT22;61651;45.508;12.232;2022-08-01T15:18:11;40.30;90.70
14008;DHT22;61651;45.508;12.232;2022-08-01T15:21:14;40.20;89.30
14008;DHT22;61651;45.508;12.232;2022-08-01T15:24:16;39.90;88.30
14008;DHT22;61651;45.508;12.232;2022-08-01T15:27:19;39.90;87.80
14008;DHT22;61651;45.508;12.232;2022-08-01T15:30:21;40.00;86.40
14008;DHT22;61651;45.508;12.232;2022-08-01T15:33:23;39.90;85.50
14008;DHT22;61651;45.508;12.232;2022-08-01T15:36:26;39.80;84.60
14008;DHT22;61651;45.508;12.232;2022-08-01T15:39:29;39.70;84.00
14008;DHT22;61651;45.508;12.232;2022-08-01T15:42:31;39.70;86.30
14008;DHT22;61651;45.508;12.232;2022-08-01T15:45:33;39.70;87.80
14008;DHT22;61651;45.508;12.232;2022-08-01T15:48:35;39.70;88.70
14008;DHT22;61651;45.508;12.232;2022-08-01T15:51:38;39.70;88.80
14008;DHT22;61651;45.508;12.232;2022-08-01T15:54:40;39.50;87.60
14008;DHT22;61651;45.508;12.232;2022-08-01T15:57:42;39.30;87.30
14008;DHT22;61651;45.508;12.232;2022-08-01T16:00:44;39.10;86.20
14008;DHT22;61651;45.508;12.232;2022-08-01T16:03:46;38.90;86.20
14008;DHT22;61651;45.508;12.232;2022-08-01T16:06:50;38.70;86.80
14008;DHT22;61651;45.508;12.232;2022-08-01T16:09:52;38.50;87.40
14008;DHT22;61651;45.508;12.232;2022-08-01T16:12:54;38.40;89.60
14008;DHT22;61651;45.508;12.232;2022-08-01T16:15:56;38.30;89.70
14008;DHT22;61651;45.508;12.232;2022-08-01T16:18:59;38.10;90.30
14008;DHT22;61651;45.508;12.232;2022-08-01T16:22:02;37.70;89.90
14008;DHT22;61651;45.508;12.232;2022-08-01T16:25:04;37.50;89.70
14008;DHT22;61651;45.508;12.232;2022-08-01T16:28:06;37.30;90.40
14008;DHT22;61651;45.508;12.232;2022-08-01T16:31:09;37.00;90.30
14008;DHT22;61651;45.508;12.232;2022-08-01T16:34:11;36.60;90.70
14008;DHT22;61651;45.508;12.232;2022-08-01T16:37:15;36.50;90.70
14008;DHT22;61651;45.508;12.232;2022-08-01T16:40:17;36.30;91.70
14008;DHT22;61651;45.508;12.232;2022-08-01T16:43:19;35.90;92.00
14008;DHT22;61651;45.508;12.232;2022-08-01T16:46:22;35.60;91.30
14008;DHT22;61651;45.508;12.232;2022-08-01T16:49:24;35.40;91.10
14008;DHT22;61651;45.508;12.232;2022-08-01T16:52:27;35.30;91.90
14008;DHT22;61651;45.508;12.232;2022-08-01T16:55:29;34.90;91.60
14008;DHT22;61651;45.508;12.232;2022-08-01T16:58:32;34.80;92.80
14008;DHT22;61651;45.508;12.232;2022-08-01T17:01:34;34.50;92.70
14008;DHT22;61651;45.508;12.232;2022-08-01T17:04:36;34.50;92.40
14008;DHT22;61651;45.508;12.232;2022-08-01T17:07:39;34.40;92.80
14008;DHT22;61651;45.508;12.232;2022-08-01T17:10:42;34.30;94.30
14008;DHT22;61651;45.508;12.232;2022-08-01T17:13:44;34.20;93.90
14008;DHT22;61651;45.508;12.232;2022-08-01T17:16:46;34.10;94.10
14008;DHT22;61651;45.508;12.232;2022-08-01T17:19:48;33.80;93.80
14008;DHT22;61651;45.508;12.232;2022-08-01T17:22:51;33.70;94.40
14008;DHT22;61651;45.508;12.232;2022-08-01T17:25:53;33.60;95.00
14008;DHT22;61651;45.508;12.232;2022-08-01T17:28:55;33.50;95.80
14008;DHT22;61651;45.508;12.232;2022-08-01T17:31:57;33.40;95.90
14008;DHT22;61651;45.508;12.232;2022-08-01T17:34:59;33.40;96.00
14008;DHT22;61651;45.508;12.232;2022-08-01T17:38:03;33.30;95.80
14008;DHT22;61651;45.508;12.232;2022-08-01T17:41:05;33.20;96.30
14008;DHT22;61651;45.508;12.232;2022-08-01T17:44:07;33.00;96.70
14008;DHT22;61651;45.508;12.232;2022-08-01T17:47:09;33.00;97.50
14008;DHT22;61651;45.508;12.232;2022-08-01T17:50:12;33.00;97.90
14008;DHT22;61651;45.508;12.232;2022-08-01T17:53:15;33.00;97.80
14008;DHT22;61651;45.508;12.232;2022-08-01T17:56:17;32.80;97.30
14008;DHT22;61651;45.508;12.232;2022-08-01T17:59:19;32.80;97.70
14008;DHT22;61651;45.508;12.232;2022-08-01T18:02:21;32.80;98.00
14008;DHT22;61651;45.508;12.232;2022-08-01T18:05:24;32.80;98.70
14008;DHT22;61651;45.508;12.232;2022-08-01T18:08:27;32.70;99.70
14008;DHT22;61651;45.508;12.232;2022-08-01T18:11:30;32.70;99.90
14008;DHT22;61651;45.508;12.232;2022-08-01T18:14:32;32.80;99.90
14008;DHT22;61651;45.508;12.232;2022-08-01T18:17:34;32.80;99.90
14008;DHT22;61651;45.508;12.232;2022-08-01T18:20:36;32.70;99.90
14008;DHT22;61651;45.508;12.232;2022-08-01T18:23:39;32.70;99.90
14008;DHT22;61651;45.508;12.232;2022-08-01T18:26:41;32.60;99.90
14008;DHT22;61651;45.508;12.232;2022-08-01T18:29:43;32.60;99.90
14008;DHT22;61651;45.508;12.232;2022-08-01T18:32:45;32.60;99.90
14008;DHT22;61651;45.508;12.232;2022-08-01T18:35:47;32.60;99.90
14008;DHT22;61651;45.508;12.232;2022-08-01T18:38:51;32.50;99.90
14008;DHT22;61651;45.508;12.232;2022-08-01T18:41:53;32.50;99.90
14008;DHT22;61651;45.508;12.232;2022-08-01T18:44:56;32.40;99.90
14008;DHT22;61651;45.508;12.232;2022-08-01T18:47:58;32.40;99.90
14008;DHT22;61651;45.508;12.232;2022-08-01T18:51:01;32.40;99.90
14008;DHT22;61651;45.508;12.232;2022-08-01T18:54:04;32.30;99.90
14008;DHT22;61651;45.508;12.232;2022-08-01T18:57:07;32.30;99.90
14008;DHT22;61651;45.508;12.232;2022-08-01T19:00:09;32.20;99.90
14008;DHT22;61651;45.508;12.232;2022-08-01T19:03:14;32.20;99.90